createdAt,value
2024-03-05T00:00:23.225Z,10.94
2024-03-05T00:01:20.368Z,10.92
2024-03-05T00:02:18.472Z,10.66
2024-03-05T00:03:15.574Z,10.91
2024-03-05T00:04:12.416Z,10.92
2024-03-05T00:05:10.281Z,10.55
2024-03-05T00:06:07.595Z,10.85
2024-03-05T00:07:04.718Z,10.60
2024-03-05T00:08:01.652Z,10.69
2024-03-05T00:08:58.551Z,10.83
2024-03-05T00:09:56.473Z,10.71
2024-03-05T00:10:55.299Z,10.70
2024-03-05T00:11:52.532Z,10.84
2024-03-05T00:12:49.458Z,10.86
2024-03-05T00:13:46.505Z,10.78
2024-03-05T00:14:43.353Z,10.67
2024-03-05T00:15:40.991Z,10.83
2024-03-05T00:16:37.846Z,10.81
2024-03-05T00:17:34.828Z,10.84
2024-03-05T00:18:31.678Z,10.88
2024-03-05T00:19:28.552Z,10.74
2024-03-05T00:20:25.733Z,10.72
2024-03-05T00:21:22.690Z,10.63
2024-03-05T00:22:22.340Z,10.84
2024-03-05T00:23:19.255Z,10.60
2024-03-05T00:24:16.097Z,10.68
2024-03-05T00:25:13.548Z,10.38
2024-03-05T00:26:15.972Z,10.57
2024-03-05T00:27:12.818Z,10.67
2024-03-05T00:28:09.941Z,10.65
2024-03-05T00:29:07.926Z,10.78
2024-03-05T00:30:06.220Z,10.67
2024-03-05T00:31:04.103Z,10.55
2024-03-05T00:32:00.956Z,10.59
2024-03-05T00:32:57.863Z,10.79
2024-03-05T00:33:54.702Z,10.41
2024-03-05T00:34:51.588Z,10.24
2024-03-05T00:35:48.571Z,10.49
2024-03-05T00:36:45.411Z,10.53
2024-03-05T00:37:42.311Z,10.68
2024-03-05T00:38:39.206Z,10.66
2024-03-05T00:39:36.057Z,10.38
2024-03-05T00:40:33.015Z,10.31
2024-03-05T00:41:30.041Z,10.59
2024-03-05T00:42:26.876Z,10.62
2024-03-05T00:43:23.816Z,10.35
2024-03-05T00:44:20.658Z,10.50
2024-03-05T00:45:18.758Z,10.61
2024-03-05T00:46:17.947Z,10.60
2024-03-05T00:47:14.857Z,10.81
2024-03-05T00:48:11.709Z,10.83
2024-03-05T00:49:11.839Z,10.67
2024-03-05T00:50:14.880Z,10.43
2024-03-05T00:51:11.838Z,10.74
2024-03-05T00:52:08.994Z,10.77
2024-03-05T00:53:06.069Z,10.85
2024-03-05T00:54:03.012Z,10.41
2024-03-05T00:55:01.064Z,10.63
2024-03-05T00:55:58.170Z,10.75
2024-03-05T00:56:55.082Z,10.68
2024-03-05T00:57:52.723Z,10.76
2024-03-05T00:58:49.576Z,10.67
2024-03-05T00:59:49.376Z,10.64
2024-03-05T01:00:46.897Z,10.79
2024-03-05T01:01:44.625Z,10.75
2024-03-05T01:02:43.701Z,10.63
2024-03-05T01:03:40.540Z,10.46
2024-03-05T01:04:37.773Z,10.82
2024-03-05T01:05:34.633Z,10.48
2024-03-05T01:06:31.986Z,10.46
2024-03-05T01:07:28.913Z,10.39
2024-03-05T01:08:25.746Z,10.57
2024-03-05T01:09:25.983Z,10.44
2024-03-05T01:10:23.274Z,10.67
2024-03-05T01:11:20.211Z,10.57
2024-03-05T01:12:17.604Z,10.48
2024-03-05T01:13:14.527Z,10.51
2024-03-05T01:14:11.588Z,10.69
2024-03-05T01:15:08.705Z,10.63
2024-03-05T01:16:05.835Z,10.50
2024-03-05T01:17:05.822Z,10.74
2024-03-05T01:18:02.971Z,10.69
2024-03-05T01:19:00.693Z,10.64
2024-03-05T01:19:58.327Z,10.66
2024-03-05T01:20:55.239Z,10.68
2024-03-05T01:21:52.150Z,10.45
2024-03-05T01:22:49.044Z,10.43
2024-03-05T01:23:45.951Z,10.44
2024-03-05T01:24:42.893Z,10.43
2024-03-05T01:25:39.860Z,10.36
2024-03-05T01:26:38.886Z,10.50
2024-03-05T01:27:35.859Z,10.41
2024-03-05T01:28:32.792Z,10.33
2024-03-05T01:29:31.596Z,10.16
2024-03-05T01:30:29.256Z,10.41
2024-03-05T01:31:27.506Z,10.41
2024-03-05T01:32:24.373Z,10.33
2024-03-05T01:33:21.945Z,10.38
2024-03-05T01:34:18.965Z,10.50
2024-03-05T01:35:17.841Z,10.47
2024-03-05T01:36:16.601Z,10.48
2024-03-05T01:37:13.586Z,10.27
2024-03-05T01:38:10.431Z,10.06
2024-03-05T01:39:07.272Z,10.22
2024-03-05T01:40:07.681Z,10.56
2024-03-05T01:41:04.894Z,10.50
2024-03-05T01:42:01.729Z,10.62
2024-03-05T01:42:59.069Z,10.60
2024-03-05T01:43:56.032Z,10.68
2024-03-05T01:44:52.829Z,10.62
2024-03-05T01:45:52.966Z,10.56
2024-03-05T01:46:54.364Z,10.18
2024-03-05T01:47:51.516Z,10.36
2024-03-05T01:48:49.040Z,10.42
2024-03-05T01:49:46.073Z,10.24
2024-03-05T01:50:45.942Z,10.40
2024-03-05T01:51:45.617Z,10.43
2024-03-05T01:52:45.198Z,10.22
2024-03-05T01:53:44.991Z,10.13
2024-03-05T01:54:43.961Z,10.10
2024-03-05T01:55:41.787Z,10.35
2024-03-05T01:56:38.768Z,10.39
2024-03-05T01:57:36.130Z,10.28
2024-03-05T01:58:33.084Z,10.33
2024-03-05T01:59:30.268Z,10.29
2024-03-05T02:00:27.945Z,10.20
2024-03-05T02:01:26.425Z,10.38
2024-03-05T02:02:25.084Z,9.92
2024-03-05T02:03:22.190Z,10.10
2024-03-05T02:04:19.531Z,10.05
2024-03-05T02:05:16.719Z,10.04
2024-03-05T02:06:15.866Z,9.99
2024-03-05T02:07:13.870Z,10.21
2024-03-05T02:08:10.776Z,9.94
2024-03-05T02:09:12.721Z,10.21
2024-03-05T02:10:10.691Z,10.19
2024-03-05T02:11:09.481Z,10.17
2024-03-05T02:12:06.911Z,9.81
2024-03-05T02:13:03.786Z,10.04
2024-03-05T02:14:01.713Z,10.18
2024-03-05T02:14:58.578Z,10.15
2024-03-05T02:15:55.640Z,10.21
2024-03-05T02:16:53.639Z,10.08
2024-03-05T02:17:51.904Z,10.28
2024-03-05T02:18:48.726Z,10.06
2024-03-05T02:19:51.308Z,9.85
2024-03-05T02:20:48.362Z,9.35
2024-03-05T02:21:46.017Z,9.80
2024-03-05T02:22:43.800Z,9.99
2024-03-05T02:23:41.232Z,9.99
2024-03-05T02:24:39.225Z,9.56
2024-03-05T02:25:36.725Z,9.73
2024-03-05T02:26:33.692Z,10.10
2024-03-05T02:27:34.934Z,10.05
2024-03-05T02:28:32.530Z,9.88
2024-03-05T02:29:32.143Z,9.62
2024-03-05T02:30:30.636Z,9.90
2024-03-05T02:31:28.162Z,9.56
2024-03-05T02:32:27.008Z,9.53
2024-03-05T02:33:23.887Z,9.57
2024-03-05T02:34:22.544Z,10.02
2024-03-05T02:35:19.794Z,9.89
2024-03-05T02:36:16.688Z,10.07
2024-03-05T02:37:13.825Z,9.73
2024-03-05T02:38:11.154Z,9.90
2024-03-05T02:39:08.447Z,9.71
2024-03-05T02:40:15.464Z,9.37
2024-03-05T02:41:12.547Z,9.67
2024-03-05T02:42:09.387Z,9.72
2024-03-05T02:43:07.958Z,9.80
2024-03-05T02:44:05.228Z,9.84
2024-03-05T02:45:05.936Z,10.11
2024-03-05T02:46:02.800Z,9.99
2024-03-05T02:46:59.799Z,10.17
2024-03-05T02:47:56.633Z,9.82
2024-03-05T02:48:54.285Z,10.20
2024-03-05T02:49:52.076Z,9.92
2024-03-05T02:50:48.906Z,9.68
2024-03-05T02:51:46.015Z,10.10
2024-03-05T02:52:43.171Z,10.04
2024-03-05T02:53:40.100Z,9.93
2024-03-05T02:54:37.085Z,9.88
2024-03-05T02:55:39.140Z,9.89
2024-03-05T02:56:36.041Z,9.72
2024-03-05T02:57:32.819Z,10.11
2024-03-05T02:58:29.690Z,10.19
2024-03-05T02:59:26.576Z,10.05
2024-03-05T03:00:25.491Z,9.76
2024-03-05T03:01:22.525Z,9.95
2024-03-05T03:02:21.483Z,10.20
2024-03-05T03:03:18.348Z,10.06
2024-03-05T03:04:16.645Z,10.04
2024-03-05T03:05:14.298Z,9.98
2024-03-05T03:06:20.434Z,9.94
2024-03-05T03:07:18.016Z,9.94
2024-03-05T03:08:15.751Z,9.77
2024-03-05T03:09:12.673Z,10.04
2024-03-05T03:10:11.099Z,9.93
2024-03-05T03:11:08.870Z,9.96
2024-03-05T03:12:06.402Z,9.97
2024-03-05T03:13:03.306Z,9.95
2024-03-05T03:14:00.191Z,10.32
2024-03-05T03:14:57.097Z,10.31
2024-03-05T03:15:54.033Z,10.05
2024-03-05T03:16:51.276Z,10.24
2024-03-05T03:17:48.961Z,9.83
2024-03-05T03:18:46.083Z,10.18
2024-03-05T03:19:44.265Z,10.17
2024-03-05T03:20:41.298Z,9.99
2024-03-05T03:21:38.236Z,9.85
2024-03-05T03:22:36.276Z,9.95
2024-03-05T03:23:33.665Z,9.96
2024-03-05T03:24:30.445Z,9.81
2024-03-05T03:25:27.316Z,9.99
2024-03-05T03:26:24.909Z,10.01
2024-03-05T03:27:21.764Z,9.91
2024-03-05T03:28:19.047Z,10.17
2024-03-05T03:29:15.912Z,10.24
2024-03-05T03:30:19.359Z,10.18
2024-03-05T03:31:16.828Z,10.29
2024-03-05T03:32:13.702Z,10.25
2024-03-05T03:33:10.646Z,9.81
2024-03-05T03:34:07.492Z,10.13
2024-03-05T03:35:07.450Z,10.14
2024-03-05T03:36:05.147Z,10.28
2024-03-05T03:37:01.961Z,9.89
2024-03-05T03:37:58.856Z,9.77
2024-03-05T03:38:55.689Z,10.00
2024-03-05T03:39:52.502Z,9.79
2024-03-05T03:40:49.374Z,9.98
2024-03-05T03:41:49.763Z,10.22
2024-03-05T03:42:47.009Z,10.11
2024-03-05T03:43:43.886Z,10.24
2024-03-05T03:44:41.693Z,10.31
2024-03-05T03:45:38.506Z,10.12
2024-03-05T03:46:38.842Z,9.96
2024-03-05T03:47:35.725Z,10.15
2024-03-05T03:48:32.599Z,10.01
2024-03-05T03:49:29.514Z,10.23
2024-03-05T03:50:26.465Z,10.17
2024-03-05T03:51:23.628Z,9.92
2024-03-05T03:52:20.505Z,10.29
2024-03-05T03:53:17.304Z,10.22
2024-03-05T03:54:14.140Z,10.43
2024-03-05T03:55:11.018Z,10.22
2024-03-05T03:56:07.860Z,10.01
2024-03-05T03:57:04.947Z,10.15
2024-03-05T03:58:02.207Z,10.19
2024-03-05T03:58:59.206Z,9.91
2024-03-05T03:59:56.138Z,10.31
2024-03-05T04:00:53.397Z,10.04
2024-03-05T04:01:51.409Z,10.17
2024-03-05T04:02:48.970Z,10.37
2024-03-05T04:03:46.449Z,10.35
2024-03-05T04:04:43.841Z,10.40
2024-03-05T04:05:40.731Z,10.38
2024-03-05T04:06:37.517Z,10.46
2024-03-05T04:07:34.900Z,10.36
2024-03-05T04:08:31.757Z,10.34
2024-03-05T04:09:28.789Z,10.38
2024-03-05T04:10:25.677Z,10.25
2024-03-05T04:11:23.318Z,10.55
2024-03-05T04:12:20.223Z,10.26
2024-03-05T04:13:18.848Z,10.33
2024-03-05T04:14:16.596Z,10.43
2024-03-05T04:15:13.795Z,10.22
2024-03-05T04:16:11.455Z,10.04
2024-03-05T04:17:08.281Z,10.46
2024-03-05T04:18:06.184Z,10.60
2024-03-05T04:19:03.049Z,10.20
2024-03-05T04:20:00.017Z,10.01
2024-03-05T04:20:56.868Z,9.72
2024-03-05T04:21:53.735Z,10.23
2024-03-05T04:22:50.714Z,9.77
2024-03-05T04:23:47.883Z,10.04
2024-03-05T04:24:53.506Z,9.96
2024-03-05T04:25:51.834Z,9.87
2024-03-05T04:26:49.755Z,10.13
2024-03-05T04:27:49.738Z,10.25
2024-03-05T04:28:50.856Z,9.88
2024-03-05T04:29:48.751Z,10.04
2024-03-05T04:30:49.697Z,9.90
2024-03-05T04:32:06.213Z,9.97
2024-03-05T04:33:05.365Z,9.80
2024-03-05T04:34:04.200Z,9.80
2024-03-05T04:35:01.849Z,10.01
2024-03-05T04:35:59.444Z,9.99
2024-03-05T04:36:57.928Z,10.25
2024-03-05T04:37:57.277Z,9.59
2024-03-05T04:38:54.249Z,9.91
2024-03-05T04:39:51.047Z,9.97
2024-03-05T04:40:47.898Z,9.49
2024-03-05T04:41:45.725Z,10.00
2024-03-05T04:42:42.762Z,9.76
2024-03-05T04:43:39.824Z,9.92
2024-03-05T04:44:37.177Z,9.28
2024-03-05T04:45:39.194Z,9.78
2024-03-05T04:46:36.112Z,9.76
2024-03-05T04:47:33.172Z,9.79
2024-03-05T04:48:30.006Z,9.97
2024-03-05T04:49:27.952Z,9.67
2024-03-05T04:50:24.873Z,9.57
2024-03-05T04:51:21.824Z,9.52
2024-03-05T04:52:19.399Z,9.61
2024-03-05T04:53:16.275Z,9.58
2024-03-05T04:54:13.164Z,9.66
2024-03-05T04:55:11.297Z,8.85
2024-03-05T04:56:08.326Z,9.53
2024-03-05T04:57:06.675Z,9.42
2024-03-05T04:58:03.621Z,9.54
2024-03-05T04:59:01.482Z,9.36
2024-03-05T04:59:59.246Z,9.18
2024-03-05T05:00:56.359Z,9.57
2024-03-05T05:01:53.422Z,9.67
2024-03-05T05:02:52.602Z,9.82
2024-03-05T05:03:49.738Z,9.76
2024-03-05T05:04:46.877Z,9.47
2024-03-05T05:05:43.896Z,9.58
2024-03-05T05:06:40.701Z,9.64
2024-03-05T05:07:37.517Z,9.73
2024-03-05T05:08:35.853Z,9.79
2024-03-05T05:09:33.132Z,9.81
2024-03-05T05:10:30.196Z,10.05
2024-03-05T05:11:27.226Z,10.07
2024-03-05T05:12:24.181Z,9.71
2024-03-05T05:13:21.739Z,10.14
2024-03-05T05:14:18.606Z,9.67
2024-03-05T05:15:15.767Z,10.06
2024-03-05T05:16:12.887Z,9.81
2024-03-05T05:17:09.764Z,9.77
2024-03-05T05:18:07.048Z,10.01
2024-03-05T05:19:06.312Z,9.91
2024-03-05T05:20:09.937Z,10.11
2024-03-05T05:22:23.187Z,10.32
2024-03-05T05:23:19.984Z,10.39
2024-03-05T05:24:16.854Z,10.17
2024-03-05T05:25:18.122Z,10.10
2024-03-05T05:26:15.168Z,10.29
2024-03-05T05:27:12.039Z,10.30
2024-03-05T05:28:08.871Z,10.39
2024-03-05T05:29:05.652Z,10.07
2024-03-05T05:30:09.629Z,10.35
2024-03-05T05:31:25.839Z,10.05
2024-03-05T05:32:23.245Z,9.97
2024-03-05T05:33:20.057Z,9.79
2024-03-05T05:34:16.920Z,10.20
2024-03-05T05:35:13.817Z,10.07
2024-03-05T05:36:11.831Z,10.06
2024-03-05T05:37:08.775Z,9.88
2024-03-05T05:38:05.721Z,10.01
2024-03-05T05:39:03.180Z,9.89
2024-03-05T05:40:00.049Z,9.87
2024-03-05T05:40:56.899Z,9.97
2024-03-05T05:41:54.114Z,9.91
2024-03-05T05:42:51.586Z,9.81
2024-03-05T05:43:50.142Z,9.70
2024-03-05T05:44:48.159Z,9.78
2024-03-05T05:45:47.294Z,9.69
2024-03-05T05:46:45.403Z,9.83
2024-03-05T05:47:50.370Z,9.87
2024-03-05T05:48:50.349Z,9.66
2024-03-05T05:49:48.179Z,9.60
2024-03-05T05:50:52.946Z,9.74
2024-03-05T05:51:52.475Z,9.59
2024-03-05T05:52:54.336Z,9.73
2024-03-05T05:53:52.118Z,9.73
2024-03-05T05:54:50.553Z,9.67
2024-03-05T05:55:47.452Z,9.59
2024-03-05T05:56:44.865Z,9.78
2024-03-05T05:57:41.650Z,9.59
2024-03-05T05:58:38.847Z,9.95
2024-03-05T05:59:35.820Z,9.71
2024-03-05T06:00:40.258Z,9.57
2024-03-05T06:01:38.893Z,9.47
2024-03-05T06:02:36.087Z,9.37
2024-03-05T06:03:34.766Z,9.74
2024-03-05T06:04:34.022Z,9.62
2024-03-05T06:05:33.423Z,9.40
2024-03-05T06:06:30.650Z,9.28
2024-03-05T06:07:27.491Z,9.00
2024-03-05T06:08:24.439Z,9.41
2024-03-05T06:09:35.148Z,9.53
2024-03-05T06:10:32.106Z,9.55
2024-03-05T06:11:29.056Z,9.50
2024-03-05T06:12:26.716Z,9.56
2024-03-05T06:13:25.498Z,9.94
2024-03-05T06:14:22.613Z,9.93
2024-03-05T06:15:19.585Z,9.76
2024-03-05T06:16:17.785Z,9.94
2024-03-05T06:17:14.789Z,9.85
2024-03-05T06:18:12.158Z,9.94
2024-03-05T06:19:10.112Z,10.22
2024-03-05T06:20:11.767Z,10.24
2024-03-05T06:21:08.928Z,9.88
2024-03-05T06:22:05.928Z,9.65
2024-03-05T06:23:04.690Z,10.13
2024-03-05T06:24:02.242Z,9.99
2024-03-05T06:24:59.028Z,9.95
2024-03-05T06:25:55.904Z,10.10
2024-03-05T06:26:52.814Z,9.77
2024-03-05T06:27:49.717Z,10.15
2024-03-05T06:28:46.620Z,9.66
2024-03-05T06:29:44.081Z,9.76
2024-03-05T06:30:47.032Z,9.71
2024-03-05T06:31:44.915Z,9.81
2024-03-05T06:32:49.594Z,9.89
2024-03-05T06:33:46.670Z,9.97
2024-03-05T06:34:43.789Z,9.85
2024-03-05T06:35:40.731Z,10.06
2024-03-05T06:36:38.752Z,10.35
2024-03-05T06:37:36.001Z,10.41
2024-03-05T06:38:32.992Z,10.52
2024-03-05T06:39:36.613Z,10.36
2024-03-05T06:40:34.173Z,10.27
2024-03-05T06:41:31.828Z,10.63
2024-03-05T06:42:31.542Z,10.14
2024-03-05T06:43:37.778Z,10.35
2024-03-05T06:44:37.656Z,10.44
2024-03-05T06:45:38.012Z,10.37
2024-03-05T06:46:34.941Z,10.67
2024-03-05T06:47:40.077Z,10.51
2024-03-05T06:48:39.372Z,10.77
2024-03-05T06:49:42.217Z,10.36
2024-03-05T06:50:42.746Z,10.64
2024-03-05T06:51:53.143Z,10.42
2024-03-05T06:53:11.172Z,10.95
2024-03-05T06:56:00.244Z,10.83
2024-03-05T06:56:57.493Z,10.85
2024-03-05T06:57:54.393Z,11.07
2024-03-05T06:58:51.322Z,11.05
2024-03-05T06:59:50.972Z,10.78
2024-03-05T07:00:48.991Z,11.23
2024-03-05T07:01:46.015Z,11.23
2024-03-05T07:02:43.368Z,11.08
2024-03-05T07:03:41.682Z,11.23
2024-03-05T07:04:39.973Z,10.91
2024-03-05T07:05:37.260Z,10.79
2024-03-05T07:06:35.394Z,10.95
2024-03-05T07:07:34.403Z,11.09
2024-03-05T07:08:31.244Z,11.35
2024-03-05T07:09:32.018Z,11.23
2024-03-05T07:10:29.908Z,11.24
2024-03-05T07:11:28.213Z,11.21
2024-03-05T07:12:25.860Z,11.22
2024-03-05T07:13:22.732Z,11.06
2024-03-05T07:14:19.686Z,11.12
2024-03-05T07:15:16.557Z,11.25
2024-03-05T07:16:19.775Z,11.23
2024-03-05T07:17:16.874Z,11.35
2024-03-05T07:18:15.921Z,11.60
2024-03-05T07:19:13.345Z,11.59
2024-03-05T07:20:23.887Z,11.28
2024-03-05T07:21:24.238Z,11.47
2024-03-05T07:22:21.201Z,11.45
2024-03-05T07:23:18.901Z,11.43
2024-03-05T07:24:17.434Z,11.36
2024-03-05T07:25:18.161Z,11.46
2024-03-05T07:26:16.646Z,11.49
2024-03-05T07:27:13.850Z,11.51
2024-03-05T07:28:11.492Z,11.65
2024-03-05T07:29:08.380Z,11.48
2024-03-05T07:30:06.155Z,11.36
2024-03-05T07:31:03.299Z,11.44
2024-03-05T07:32:00.335Z,11.24
2024-03-05T07:32:57.905Z,11.38
2024-03-05T07:33:55.868Z,11.48
2024-03-05T07:34:52.830Z,11.32
2024-03-05T07:35:50.103Z,11.46
2024-03-05T07:36:46.949Z,11.41
2024-03-05T07:37:47.854Z,11.10
2024-03-05T07:38:44.710Z,11.67
2024-03-05T07:39:41.539Z,11.76
2024-03-05T07:40:38.559Z,11.58
2024-03-05T07:41:35.580Z,11.78
2024-03-05T07:42:32.462Z,11.49
2024-03-05T07:43:29.270Z,11.57
2024-03-05T07:44:26.067Z,11.66
2024-03-05T07:45:24.339Z,11.75
2024-03-05T07:46:21.396Z,11.65
2024-03-05T07:47:18.770Z,11.98
2024-03-05T07:48:16.002Z,11.30
2024-03-05T07:49:12.909Z,11.68
2024-03-05T07:50:13.633Z,11.83
2024-03-05T07:51:11.089Z,11.43
2024-03-05T07:52:07.944Z,11.96
2024-03-05T07:53:05.089Z,11.85
2024-03-05T07:54:01.973Z,11.95
2024-03-05T07:54:59.026Z,11.35
2024-03-05T07:55:55.897Z,11.68
2024-03-05T07:56:53.206Z,11.46
2024-03-05T07:57:50.638Z,11.77
2024-03-05T07:58:47.574Z,11.73
2024-03-05T07:59:44.386Z,11.54
2024-03-05T08:00:41.514Z,11.55
2024-03-05T08:01:38.826Z,11.83
2024-03-05T08:02:46.617Z,12.03
2024-03-05T08:03:43.461Z,12.11
2024-03-05T08:04:40.936Z,11.91
2024-03-05T08:05:37.818Z,11.60
2024-03-05T08:06:34.813Z,11.27
2024-03-05T08:07:36.858Z,11.54
2024-03-05T08:08:34.737Z,11.07
2024-03-05T08:09:31.676Z,11.57
2024-03-05T08:10:29.279Z,11.53
2024-03-05T08:11:26.373Z,11.56
2024-03-05T08:12:23.204Z,11.67
2024-03-05T08:13:21.376Z,11.80
2024-03-05T08:14:18.308Z,11.65
2024-03-05T08:15:17.966Z,11.67
2024-03-05T08:16:14.879Z,11.94
2024-03-05T08:17:11.752Z,11.57
2024-03-05T08:18:12.024Z,11.65
2024-03-05T08:19:09.017Z,11.98
2024-03-05T08:20:08.297Z,11.87
2024-03-05T08:21:05.355Z,11.99
2024-03-05T08:22:04.269Z,11.62
2024-03-05T08:23:01.125Z,11.62
2024-03-05T08:23:57.982Z,11.91
2024-03-05T08:24:54.870Z,11.48
2024-03-05T08:25:52.917Z,11.97
2024-03-05T08:26:50.671Z,12.04
2024-03-05T08:27:51.973Z,11.94
2024-03-05T08:28:48.926Z,12.30
2024-03-05T08:29:46.203Z,12.30
2024-03-05T08:30:43.734Z,12.02
2024-03-05T08:31:40.963Z,12.31
2024-03-05T08:32:40.688Z,12.48
2024-03-05T08:33:37.574Z,12.20
2024-03-05T08:34:34.988Z,12.16
2024-03-05T08:35:32.657Z,11.88
2024-03-05T08:36:33.095Z,12.27
2024-03-05T08:37:30.016Z,12.23
2024-03-05T08:38:28.242Z,12.25
2024-03-05T08:39:25.287Z,12.08
2024-03-05T08:40:22.801Z,12.24
2024-03-05T08:41:19.728Z,12.49
2024-03-05T08:42:17.193Z,12.45
2024-03-05T08:43:15.538Z,12.14
2024-03-05T08:44:12.417Z,12.16
2024-03-05T08:45:13.977Z,11.97
2024-03-05T08:46:10.915Z,12.20
2024-03-05T08:47:08.520Z,12.25
2024-03-05T08:48:05.828Z,12.39
2024-03-05T08:49:02.754Z,11.98
2024-03-05T08:49:59.651Z,12.10
2024-03-05T08:50:56.508Z,12.08
2024-03-05T08:51:57.129Z,12.11
2024-03-05T08:52:54.099Z,11.52
2024-03-05T08:53:50.974Z,11.72
2024-03-05T08:54:47.809Z,11.99
2024-03-05T08:55:44.681Z,12.02
2024-03-05T08:56:41.584Z,11.98
2024-03-05T08:57:42.689Z,12.45
2024-03-05T08:58:39.803Z,12.31
2024-03-05T08:59:36.770Z,12.40
2024-03-05T09:00:42.080Z,12.39
2024-03-05T09:01:40.602Z,12.53
2024-03-05T09:02:38.920Z,12.64
2024-03-05T09:03:36.565Z,12.81
2024-03-05T09:04:33.451Z,12.76
2024-03-05T09:05:30.342Z,12.59
2024-03-05T09:06:28.333Z,12.76
2024-03-05T09:07:25.905Z,12.59
2024-03-05T09:08:23.055Z,12.44
2024-03-05T09:09:20.316Z,12.53
2024-03-05T09:10:19.092Z,12.59
2024-03-05T09:11:16.110Z,12.13
2024-03-05T09:12:15.122Z,12.54
2024-03-05T09:13:11.968Z,12.83
2024-03-05T09:14:10.029Z,12.94
2024-03-05T09:15:07.481Z,12.94
2024-03-05T09:16:04.669Z,12.94
2024-03-05T09:17:02.251Z,12.90
2024-03-05T09:17:59.631Z,13.17
2024-03-05T09:18:56.501Z,13.15
2024-03-05T09:19:54.072Z,13.27
2024-03-05T09:20:50.949Z,13.00
2024-03-05T09:21:47.749Z,13.22
2024-03-05T09:22:46.593Z,13.46
2024-03-05T09:23:43.869Z,13.53
2024-03-05T09:24:40.709Z,13.65
2024-03-05T09:25:39.892Z,13.73
2024-03-05T09:26:37.883Z,13.52
2024-03-05T09:27:37.269Z,13.39
2024-03-05T09:28:36.467Z,13.39
2024-03-05T09:29:33.340Z,13.39
2024-03-05T09:30:32.448Z,13.49
2024-03-05T09:31:29.420Z,13.32
2024-03-05T09:32:26.361Z,13.35
2024-03-05T09:33:23.363Z,13.41
2024-03-05T09:34:21.295Z,13.09
2024-03-05T09:35:19.337Z,13.30
2024-03-05T09:36:16.288Z,13.33
2024-03-05T09:37:13.193Z,13.14
2024-03-05T09:38:10.397Z,13.53
2024-03-05T09:39:10.852Z,13.63
2024-03-05T09:40:08.383Z,13.84
2024-03-05T09:41:07.064Z,13.81
2024-03-05T09:42:04.190Z,13.59
2024-03-05T09:43:05.167Z,13.87
2024-03-05T09:44:04.714Z,14.06
2024-03-05T09:45:06.792Z,13.60
2024-03-05T09:46:06.074Z,13.82
2024-03-05T09:47:03.592Z,13.88
2024-03-05T09:48:01.026Z,13.42
2024-03-05T09:49:04.262Z,13.76
2024-03-05T09:50:12.644Z,13.98
2024-03-05T09:51:15.964Z,13.98
2024-03-05T09:52:14.943Z,13.90
2024-03-05T09:53:13.482Z,14.07
2024-03-05T09:54:14.259Z,14.33
2024-03-05T09:55:13.530Z,13.90
2024-03-05T09:56:10.745Z,13.99
2024-03-05T09:57:08.094Z,14.19
2024-03-05T09:58:15.415Z,14.00
2024-03-05T09:59:14.303Z,13.99
2024-03-05T10:00:19.689Z,14.07
2024-03-05T10:01:17.804Z,13.98
2024-03-05T10:02:17.493Z,13.89
2024-03-05T10:03:14.460Z,13.74
2024-03-05T10:04:14.309Z,13.68
2024-03-05T10:05:11.793Z,13.80
2024-03-05T10:06:12.942Z,13.54
2024-03-05T10:07:10.531Z,13.64
2024-03-05T10:08:07.962Z,13.34
2024-03-05T10:09:06.603Z,13.07
2024-03-05T10:10:08.954Z,13.05
2024-03-05T10:11:06.525Z,13.15
2024-03-05T10:12:05.064Z,13.20
2024-03-05T10:13:02.888Z,13.20
2024-03-05T10:14:09.445Z,13.10
2024-03-05T10:15:18.987Z,12.85
2024-03-05T10:16:16.289Z,13.12
2024-03-05T10:17:13.127Z,13.18
2024-03-05T10:18:10.077Z,13.04
2024-03-05T10:19:18.477Z,13.22
2024-03-05T10:20:38.836Z,13.09
2024-03-05T10:21:35.983Z,13.21
2024-03-05T10:22:32.929Z,13.52
2024-03-05T10:23:30.100Z,13.75
2024-03-05T10:24:32.721Z,13.50
2024-03-05T10:25:31.526Z,13.49
2024-03-05T10:26:31.068Z,13.34
2024-03-05T10:27:29.938Z,13.88
2024-03-05T10:28:32.168Z,13.84
2024-03-05T10:29:39.040Z,13.90
2024-03-05T10:30:38.679Z,14.11
2024-03-05T10:31:48.155Z,13.78
2024-03-05T10:32:46.546Z,13.46
2024-03-05T10:33:43.344Z,13.48
2024-03-05T10:34:47.295Z,13.77
2024-03-05T10:35:51.210Z,13.82
2024-03-05T10:36:48.752Z,13.91
2024-03-05T10:38:04.703Z,13.61
2024-03-05T10:39:04.162Z,13.67
2024-03-05T10:40:01.243Z,13.75
2024-03-05T10:41:00.260Z,13.67
2024-03-05T10:42:01.093Z,14.14
2024-03-05T10:43:01.150Z,13.99
2024-03-05T10:44:02.356Z,13.96
2024-03-05T10:45:00.480Z,14.11
2024-03-05T10:45:57.475Z,14.33
2024-03-05T10:46:57.286Z,14.29
2024-03-05T10:47:58.316Z,14.28
2024-03-05T10:48:57.117Z,14.62
2024-03-05T10:49:54.286Z,14.45
2024-03-05T10:50:55.322Z,14.37
2024-03-05T10:51:54.769Z,14.14
2024-03-05T10:52:55.475Z,14.07
2024-03-05T10:53:52.454Z,14.28
2024-03-05T10:54:50.709Z,14.34
2024-03-05T10:55:52.813Z,14.15
2024-03-05T10:56:53.311Z,14.28
2024-03-05T10:58:09.738Z,14.37
2024-03-05T10:59:16.728Z,14.58
2024-03-05T11:00:16.124Z,14.34
2024-03-05T11:01:21.993Z,14.40
2024-03-05T11:02:25.611Z,13.75
2024-03-05T11:03:38.821Z,13.80
2024-03-05T11:04:36.225Z,13.77
2024-03-05T11:05:55.201Z,13.83
2024-03-05T11:06:56.678Z,14.15
2024-03-05T11:07:55.420Z,14.28
2024-03-05T11:08:52.710Z,14.33
2024-03-05T11:09:51.121Z,14.30
2024-03-05T11:10:59.052Z,14.50
2024-03-05T11:12:17.524Z,14.15
2024-03-05T11:13:16.084Z,14.39
2024-03-05T11:14:15.390Z,14.44
2024-03-05T11:15:14.078Z,14.64
2024-03-05T11:16:11.371Z,14.69
2024-03-05T11:17:13.857Z,14.55
2024-03-05T11:18:40.733Z,14.38
2024-03-05T11:19:39.698Z,14.39
2024-03-05T11:20:44.413Z,14.62
2024-03-05T11:21:43.166Z,14.24
2024-03-05T11:22:45.065Z,14.29
2024-03-05T11:23:52.684Z,13.93
2024-03-05T11:24:56.701Z,13.67
2024-03-05T11:25:58.234Z,13.57
2024-03-05T11:27:13.158Z,13.48
2024-03-05T11:28:12.359Z,13.88
2024-03-05T11:29:15.712Z,13.62
2024-03-05T11:30:18.596Z,13.37
2024-03-05T11:31:21.927Z,13.22
2024-03-05T11:32:23.864Z,12.56
2024-03-05T11:33:25.932Z,13.27
2024-03-05T11:34:22.905Z,12.98
2024-03-05T11:35:20.216Z,13.14
2024-03-05T11:36:24.020Z,12.96
2024-03-05T11:37:21.092Z,13.47
2024-03-05T11:38:20.226Z,13.35
2024-03-05T11:39:20.506Z,13.21
2024-03-05T11:40:22.542Z,13.05
2024-03-05T11:41:25.851Z,13.01
2024-03-05T11:42:24.542Z,12.92
2024-03-05T11:43:38.177Z,13.48
2024-03-05T11:44:42.733Z,13.64
2024-03-05T11:45:50.945Z,13.34
2024-03-05T11:46:51.492Z,13.07
2024-03-05T11:47:50.208Z,13.21
2024-03-05T11:48:47.178Z,13.43
2024-03-05T11:49:44.017Z,13.33
2024-03-05T11:50:41.136Z,13.59
2024-03-05T11:51:43.253Z,13.51
2024-03-05T11:52:40.758Z,13.77
2024-03-05T11:53:37.679Z,13.69
2024-03-05T11:54:37.039Z,13.70
2024-03-05T11:55:34.047Z,13.58
2024-03-05T11:56:31.091Z,13.58
2024-03-05T11:57:28.840Z,13.55
2024-03-05T11:58:27.055Z,13.57
2024-03-05T11:59:37.718Z,13.48
2024-03-05T12:00:38.131Z,13.52
2024-03-05T12:01:35.614Z,13.09
2024-03-05T12:02:33.045Z,13.38
2024-03-05T12:03:31.705Z,13.22
2024-03-05T12:04:28.689Z,13.42
2024-03-05T12:05:27.055Z,13.10
2024-03-05T12:06:24.021Z,13.55
2024-03-05T12:07:20.904Z,13.53
2024-03-05T12:08:25.920Z,13.41
2024-03-05T12:09:22.792Z,13.25
2024-03-05T12:10:24.660Z,13.51
2024-03-05T12:11:21.820Z,13.52
2024-03-05T12:12:22.876Z,13.57
2024-03-05T12:13:20.219Z,13.50
2024-03-05T12:14:17.552Z,13.74
2024-03-05T12:15:21.840Z,13.36
2024-03-05T12:16:19.007Z,13.67
2024-03-05T12:17:19.487Z,13.43
2024-03-05T12:18:18.448Z,13.38
2024-03-05T12:19:15.731Z,13.68
2024-03-05T12:20:20.307Z,13.89
2024-03-05T12:21:18.166Z,13.74
2024-03-05T12:22:17.709Z,14.02
2024-03-05T12:23:14.564Z,13.81
2024-03-05T12:24:32.480Z,13.91
2024-03-05T12:25:29.394Z,13.81
2024-03-05T12:26:26.619Z,13.83
2024-03-05T12:27:23.819Z,13.79
2024-03-05T12:28:20.718Z,13.63
2024-03-05T12:29:45.366Z,14.03
2024-03-05T12:30:42.222Z,14.05
2024-03-05T12:31:39.201Z,13.94
2024-03-05T12:32:38.044Z,14.04
2024-03-05T12:33:35.177Z,14.04
2024-03-05T12:34:33.781Z,14.03
2024-03-05T12:35:32.039Z,14.07
2024-03-05T12:36:29.050Z,14.06
2024-03-05T12:37:27.769Z,14.22
2024-03-05T12:38:24.790Z,14.31
2024-03-05T12:39:21.623Z,14.38
2024-03-05T12:40:20.514Z,14.69
2024-03-05T12:41:21.360Z,14.46
2024-03-05T12:42:24.398Z,14.03
2024-03-05T12:43:21.384Z,14.15
2024-03-05T12:44:24.628Z,14.08